Time;durP1;ratioP1;P1;durP2;ratioP2;P2;SDS_P1;SDS_P2;PMS_P1;PMS_P2;Temp;Humidity;BMP_temperature;BMP_pressure;BME280_temperature;BME280_humidity;BME280_pressure;Samples;Min_cycle;Max_cycle;Signal;HPM_P1;HPM_P2
2022/02/21 00:01:53;;;;;;;2.08;1.17;;;;;;;7.54;88.27;96541.47;4186040;28;20079;-73
2022/02/21 00:03:53;;;;;;;1.67;1.00;;;;;;;7.57;88.23;96541.41;4185576;28;20467;-73
2022/02/21 00:05:53;;;;;;;2.05;1.00;;;;;;;7.53;87.84;96524.16;4186179;28;20426;-73
2022/02/21 00:07:53;;;;;;;1.98;1.02;;;;;;;7.50;88.16;96524.19;4185122;28;20128;-73
2022/02/21 00:09:54;;;;;;;1.88;1.00;;;;;;;7.50;89.19;96504.91;4186310;28;20049;-73
2022/02/21 00:11:54;;;;;;;0.82;0.80;;;;;;;7.45;88.20;96494.38;4185871;28;20049;-73
2022/02/21 00:13:54;;;;;;;2.20;1.08;;;;;;;7.43;88.15;96461.72;4185955;28;20178;-73
2022/02/21 00:15:55;;;;;;;0.95;0.88;;;;;;;7.52;87.95;96480.53;4185802;28;20044;-73
2022/02/21 00:17:58;;;;;;;3.60;1.23;;;;;;;7.50;87.61;96464.41;4191476;28;20437;-73
2022/02/21 00:19:59;;;;;;;0.77;0.77;;;;;;;7.51;87.80;96467.94;4188431;28;20142;-73
2022/02/21 00:21:59;;;;;;;1.88;1.05;;;;;;;7.52;87.53;96453.00;4198343;28;20684;-73
2022/02/21 00:24:00;;;;;;;1.10;0.90;;;;;;;7.51;87.64;96477.00;4187125;28;20049;-73
2022/02/21 00:26:00;;;;;;;1.50;0.90;;;;;;;7.54;87.00;96461.66;4185199;28;20036;-73
2022/02/21 00:28:00;;;;;;;0.73;0.73;;;;;;;7.58;85.65;96454.13;4186877;28;20040;-73
2022/02/21 00:30:01;;;;;;;1.15;0.80;;;;;;;7.56;86.79;96438.03;4189487;28;20044;-73
2022/02/21 00:32:02;;;;;;;2.53;1.00;;;;;;;7.55;86.78;96454.97;4195411;28;20028;-73
2022/02/21 00:34:02;;;;;;;2.20;0.90;;;;;;;7.51;87.35;96419.19;4186184;28;20541;-73
2022/02/21 00:36:03;;;;;;;2.88;1.33;;;;;;;7.59;88.16;96437.22;4185432;28;20117;-73
2022/02/21 00:38:04;;;;;;;1.13;0.80;;;;;;;7.55;89.06;96446.72;4196128;28;20058;-73
2022/02/21 00:40:04;;;;;;;4.13;0.90;;;;;;;7.44;89.24;96424.00;4200793;28;20040;-73
2022/02/21 00:42:05;;;;;;;0.93;0.80;;;;;;;7.40;89.96;96429.53;4199738;28;20024;-73
2022/02/21 00:44:05;;;;;;;2.40;0.95;;;;;;;7.38;89.88;96420.91;4185712;28;20028;-73
2022/02/21 00:46:06;;;;;;;1.10;0.70;;;;;;;7.37;90.40;96429.59;4185594;28;20029;-73
2022/02/21 00:48:06;;;;;;;0.70;0.70;;;;;;;7.35;90.14;96396.16;4194693;28;20056;-72
2022/02/21 00:50:07;;;;;;;1.33;0.70;;;;;;;7.33;90.73;96411.13;4197189;28;20064;-73
2022/02/21 00:52:07;;;;;;;1.35;0.90;;;;;;;7.33;90.72;96396.59;4200537;28;20024;-73
2022/02/21 00:54:08;;;;;;;1.38;0.80;;;;;;;7.38;89.67;96400.88;4200862;28;20032;-73
2022/02/21 00:56:08;;;;;;;1.20;0.90;;;;;;;7.46;89.89;96372.09;4200628;28;20028;-73
2022/02/21 00:58:09;;;;;;;2.55;1.05;;;;;;;7.44;89.23;96358.75;4203698;28;20306;-73
2022/02/21 01:00:10;;;;;;;1.02;0.80;;;;;;;7.49;89.15;96363.03;4204276;28;20550;-73
2022/02/21 01:02:11;;;;;;;0.82;0.70;;;;;;;7.52;88.61;96351.19;4195367;28;20250;-73
2022/02/21 01:04:11;;;;;;;1.23;0.90;;;;;;;7.60;87.30;96356.22;4188578;28;20040;-73
2022/02/21 01:06:12;;;;;;;0.90;0.73;;;;;;;7.64;87.47;96358.94;4188419;28;20028;-73
2022/02/21 01:08:12;;;;;;;1.70;0.88;;;;;;;7.73;85.97;96359.22;4187931;28;20025;-73
2022/02/21 01:10:13;;;;;;;0.93;0.80;;;;;;;7.74;86.24;96347.03;4188151;28;20453;-73
2022/02/21 01:12:14;;;;;;;3.33;1.05;;;;;;;7.83;86.22;96347.31;4202864;28;20119;-73
2022/02/21 01:14:14;;;;;;;1.33;0.82;;;;;;;7.83;86.04;96317.03;4204372;28;20028;-73
2022/02/21 01:16:15;;;;;;;1.67;0.90;;;;;;;7.83;85.62;96324.50;4189296;28;20426;-73
2022/02/21 01:18:15;;;;;;;1.98;0.93;;;;;;;7.87;85.54;96328.78;4198033;28;20020;-73
2022/02/21 01:20:15;;;;;;;1.95;0.80;;;;;;;7.79;86.51;96304.50;4203253;28;20475;-73
2022/02/21 01:22:16;;;;;;;2.17;0.80;;;;;;;7.80;85.38;96312.34;4194288;28;20025;-73
2022/02/21 01:24:16;;;;;;;2.15;1.00;;;;;;;7.91;84.45;96300.41;4188112;28;20036;-73
2022/02/21 01:26:17;;;;;;;0.80;0.80;;;;;;;7.93;84.54;96320.84;4188074;28;20033;-73
2022/02/21 01:28:17;;;;;;;3.08;0.93;;;;;;;7.94;84.35;96313.34;4196356;28;20028;-73
2022/02/21 01:30:18;;;;;;;2.50;0.90;;;;;;;7.94;84.12;96307.84;4202687;28;20093;-73
2022/02/21 01:32:18;;;;;;;0.93;0.80;;;;;;;7.98;83.92;96308.59;4204364;28;20053;-73
2022/02/21 01:34:20;;;;;;;1.15;0.90;;;;;;;7.96;83.48;96294.47;4203631;28;20040;-73
2022/02/21 01:36:21;;;;;;;1.13;0.80;;;;;;;8.06;83.22;96290.78;4196382;28;20563;-73
2022/02/21 01:38:21;;;;;;;2.20;0.80;;;;;;;8.03;82.59;96289.63;4203423;28;20056;-73
2022/02/21 01:40:22;;;;;;;0.70;0.70;;;;;;;8.05;83.18;96278.22;4200257;28;20151;-73
2022/02/21 01:42:23;;;;;;;1.25;0.82;;;;;;;8.03;82.77;96292.41;4188330;28;20047;-73
2022/02/21 01:44:40;;;;;;;0.95;0.80;;;;;;;8.02;83.22;96290.03;4187929;28;20487;-74
2022/02/21 01:46:41;;;;;;;1.25;0.82;;;;;;;8.00;82.98;96284.94;4192632;28;20044;-73
2022/02/21 01:48:42;;;;;;;2.22;0.95;;;;;;;8.05;82.50;96269.94;4193783;28;20033;-73
2022/02/21 01:50:43;;;;;;;1.75;0.80;;;;;;;8.06;82.33;96296.28;4188982;28;20106;-73
2022/02/21 01:52:43;;;;;;;1.17;0.90;;;;;;;8.11;83.42;96295.84;4202785;28;20036;-73
2022/02/21 01:54:44;;;;;;;1.08;0.93;;;;;;;8.12;84.52;96300.16;4194238;28;20047;-73
2022/02/21 01:56:44;;;;;;;1.05;0.90;;;;;;;8.10;84.26;96297.78;4194619;28;20098;-73
2022/02/21 01:58:44;;;;;;;4.20;1.27;;;;;;;8.07;85.62;96322.63;4187558;28;20051;-73
2022/02/21 02:00:45;;;;;;;1.23;1.00;;;;;;;8.06;86.23;96338.38;4187863;28;20072;-73
2022/02/21 02:02:46;;;;;;;0.82;0.82;;;;;;;8.03;86.29;96352.19;4199914;28;20052;-73
2022/02/21 02:04:46;;;;;;;2.35;1.05;;;;;;;8.01;86.74;96426.94;4188366;28;20033;-73
2022/02/21 02:06:47;;;;;;;1.58;0.70;;;;;;;7.88;82.83;96550.63;4186797;28;20123;-72
2022/02/21 02:08:48;;;;;;;2.63;0.88;;;;;;;6.34;80.96;96532.66;4189414;28;20123;-72
2022/02/21 02:10:48;;;;;;;1.02;0.70;;;;;;;5.28;86.04;96564.47;4191730;28;20504;-72
2022/02/21 02:12:49;;;;;;;2.92;0.88;;;;;;;4.20;91.17;96535.16;4186054;28;20040;-72
2022/02/21 02:14:49;;;;;;;5.05;1.33;;;;;;;3.53;93.78;96533.56;4193502;28;20437;-72
2022/02/21 02:16:49;;;;;;;1.48;0.68;;;;;;;3.54;95.12;96565.19;4201296;28;20036;-72
2022/02/21 02:18:50;;;;;;;1.30;0.77;;;;;;;3.76;94.48;96565.38;4198079;28;20769;-72
2022/02/21 02:20:50;;;;;;;1.95;0.68;;;;;;;3.88;90.18;96524.00;4187475;28;20048;-72
2022/02/21 02:22:50;;;;;;;0.65;0.65;;;;;;;3.94;89.94;96514.28;4186681;28;20298;-72
2022/02/21 02:24:52;;;;;;;1.05;0.70;;;;;;;4.04;86.78;96515.50;4187172;28;20449;-72
2022/02/21 02:26:54;;;;;;;0.70;0.70;;;;;;;4.19;86.17;96507.00;4186165;28;20033;-72
2022/02/21 02:28:54;;;;;;;0.98;0.65;;;;;;;4.30;85.35;96473.41;4187315;28;20049;-72
2022/02/21 02:30:55;;;;;;;2.05;0.70;;;;;;;4.35;84.17;96460.13;4186814;28;20708;-72
2022/02/21 02:32:55;;;;;;;1.52;0.70;;;;;;;4.49;82.55;96479.34;4186790;28;20049;-72
2022/02/21 02:34:56;;;;;;;0.65;0.60;;;;;;;4.57;83.60;96471.94;4187076;28;20154;-72
2022/02/21 02:36:56;;;;;;;0.85;0.60;;;;;;;4.57;83.59;96485.63;4186113;28;20215;-72
2022/02/21 02:38:56;;;;;;;0.65;0.60;;;;;;;4.67;81.51;96489.56;4202050;28;20607;-72
2022/02/21 02:40:57;;;;;;;0.70;0.70;;;;;;;4.68;82.03;96478.22;4187062;28;20048;-72
2022/02/21 02:42:57;;;;;;;2.88;0.77;;;;;;;4.64;83.89;96485.66;4187380;28;20472;-72
2022/02/21 02:44:57;;;;;;;0.90;0.70;;;;;;;4.65;81.56;96487.22;4186967;28;20079;-72
2022/02/21 02:46:58;;;;;;;1.60;0.60;;;;;;;4.71;81.96;96518.53;4185703;28;20036;-72
2022/02/21 02:48:58;;;;;;;1.02;0.77;;;;;;;4.71;81.02;96515.78;4187062;28;20283;-72
2022/02/21 02:50:59;;;;;;;1.48;0.75;;;;;;;4.71;81.82;96510.31;4186801;28;20056;-72
2022/02/21 02:52:59;;;;;;;0.75;0.55;;;;;;;4.72;81.33;96502.91;4192230;28;20047;-72
2022/02/21 02:54:59;;;;;;;0.57;0.55;;;;;;;4.77;81.05;96503.28;4195036;28;20232;-72
2022/02/21 02:57:01;;;;;;;0.60;0.60;;;;;;;4.73;81.62;96540.88;4185719;28;20078;-72
2022/02/21 02:59:01;;;;;;;0.70;0.65;;;;;;;4.72;81.76;96533.81;4192972;28;20039;-72
2022/02/21 03:01:01;;;;;;;1.63;0.65;;;;;;;4.73;81.45;96529.13;4202564;28;20052;-72
2022/02/21 03:03:02;;;;;;;0.77;0.70;;;;;;;4.75;81.26;96524.03;4201092;28;20041;-72
2022/02/21 03:05:02;;;;;;;1.50;0.80;;;;;;;4.68;82.53;96510.31;4186815;28;20059;-71
2022/02/21 03:07:03;;;;;;;1.45;0.65;;;;;;;4.64;83.15;96444.56;4185299;28;20036;-72
2022/02/21 03:09:04;;;;;;;1.23;0.68;;;;;;;4.59;83.75;96423.03;4186705;28;20048;-72
2022/02/21 03:11:04;;;;;;;0.85;0.70;;;;;;;4.54;84.21;96450.00;4187079;28;20037;-72
2022/02/21 03:13:04;;;;;;;0.60;0.60;;;;;;;4.45;84.66;96453.13;4194089;28;20139;-72
2022/02/21 03:15:05;;;;;;;1.75;0.80;;;;;;;4.36;85.33;96456.22;4186676;28;20139;-72
2022/02/21 03:17:06;;;;;;;0.70;0.70;;;;;;;4.34;84.66;96455.03;4185500;28;20048;-72
2022/02/21 03:19:06;;;;;;;4.45;0.80;;;;;;;4.32;84.84;96460.91;4184522;28;20049;-72
2022/02/21 03:21:07;;;;;;;1.67;0.70;;;;;;;4.31;85.56;96488.69;4185726;28;20036;-72
2022/02/21 03:23:07;;;;;;;0.93;0.70;;;;;;;4.31;84.00;96516.06;4186208;28;20039;-72
2022/02/21 03:25:08;;;;;;;3.72;0.70;;;;;;;4.38;82.91;96516.06;4200959;28;20460;-72
2022/02/21 03:27:08;;;;;;;1.75;0.80;;;;;;;4.39;83.21;96512.97;4200352;28;20051;-72
2022/02/21 03:29:08;;;;;;;1.95;0.70;;;;;;;4.33;83.20;96495.34;4192894;28;20518;-72
2022/02/21 03:31:09;;;;;;;1.20;1.00;;;;;;;4.39;83.28;96493.00;4186133;28;20056;-72
2022/02/21 03:33:10;;;;;;;1.10;0.70;;;;;;;4.43;83.20;96496.53;4186427;28;20444;-72
2022/02/21 03:35:10;;;;;;;1.83;1.00;;;;;;;4.41;82.71;96496.16;4185995;28;20400;-72
2022/02/21 03:37:12;;;;;;;0.98;0.90;;;;;;;4.38;83.05;96483.22;4185237;28;20136;-72
2022/02/21 03:39:12;;;;;;;1.30;1.00;;;;;;;4.39;82.68;96479.31;4201191;28;20070;-72
2022/02/21 03:41:12;;;;;;;2.17;0.98;;;;;;;4.41;81.28;96466.81;4198038;28;20040;-72
2022/02/21 03:43:13;;;;;;;1.52;1.00;;;;;;;4.38;81.07;96467.56;4186499;28;20040;-72
2022/02/21 03:45:13;;;;;;;1.58;1.00;;;;;;;4.39;81.89;96493.00;4186257;28;20252;-72
2022/02/21 03:47:13;;;;;;;1.63;1.00;;;;;;;4.39;80.31;96509.44;4185122;28;20048;-72
2022/02/21 03:49:14;;;;;;;3.90;1.10;;;;;;;4.40;80.88;96552.88;4184945;28;20048;-72
2022/02/21 03:51:14;;;;;;;1.08;0.95;;;;;;;4.39;80.66;96553.25;4196191;28;20052;-72
2022/02/21 03:53:14;;;;;;;2.05;1.15;;;;;;;4.40;81.29;96544.66;4190590;28;20051;-72
2022/02/21 03:55:16;;;;;;;1.58;1.15;;;;;;;4.43;82.14;96567.72;4186117;28;20109;-72
2022/02/21 03:57:17;;;;;;;3.78;1.38;;;;;;;4.38;83.11;96555.19;4185256;28;20469;-72
2022/02/21 03:59:17;;;;;;;1.00;0.90;;;;;;;4.26;83.97;96550.03;4193860;28;20073;-72
2022/02/21 04:01:17;;;;;;;2.60;0.98;;;;;;;4.21;84.11;96542.97;4190548;28;20032;-72
2022/02/21 04:03:18;;;;;;;2.10;1.00;;;;;;;4.20;83.13;96526.94;4195823;28;20540;-72
2022/02/21 04:05:18;;;;;;;1.10;0.93;;;;;;;4.14;81.62;96544.91;4185189;28;20054;-72
2022/02/21 04:07:18;;;;;;;2.53;0.90;;;;;;;4.20;80.37;96546.09;4183682;28;20040;-72
2022/02/21 04:09:18;;;;;;;1.65;1.10;;;;;;;4.25;78.52;96586.03;4187157;28;20040;-72
2022/02/21 04:11:19;;;;;;;1.30;1.20;;;;;;;4.25;78.19;96605.97;4190053;28;20332;-72
2022/02/21 04:13:19;;;;;;;0.80;0.80;;;;;;;4.19;77.11;96596.53;4189573;28;20065;-72
2022/02/21 04:15:19;;;;;;;1.30;0.60;;;;;;;4.16;77.29;96587.16;4191040;28;20149;-72
2022/02/21 04:17:20;;;;;;;0.70;0.70;;;;;;;4.11;79.10;96586.72;4188395;28;20499;-72
2022/02/21 04:19:20;;;;;;;0.65;0.60;;;;;;;4.01;79.91;96606.59;4189857;28;20047;-72
2022/02/21 04:21:21;;;;;;;0.63;0.63;;;;;;;3.95;79.44;96615.13;4188993;28;20048;-72
2022/02/21 04:23:21;;;;;;;5.53;1.02;;;;;;;3.95;75.82;96615.13;4189474;28;20071;-72
2022/02/21 04:25:22;;;;;;;1.10;0.70;;;;;;;3.95;75.96;96617.88;4188892;28;20032;-72
2022/02/21 04:27:22;;;;;;;1.55;0.90;;;;;;;3.93;76.19;96616.69;4187776;28;20068;-72
2022/02/21 04:29:22;;;;;;;0.82;0.70;;;;;;;3.86;77.64;96616.63;4188367;28;20476;-72
2022/02/21 04:31:23;;;;;;;1.02;0.77;;;;;;;3.88;77.26;96617.03;4188525;28;20090;-72
2022/02/21 04:33:23;;;;;;;2.35;0.90;;;;;;;3.83;75.54;96592.78;4193114;28;20044;-72
2022/02/21 04:35:26;;;;;;;1.58;0.80;;;;;;;3.79;76.49;96606.41;4191602;28;20037;-72
2022/02/21 04:37:27;;;;;;;7.93;2.03;;;;;;;3.71;76.37;96623.16;4193377;28;20048;-72
2022/02/21 04:39:27;;;;;;;4.68;1.80;;;;;;;3.69;75.13;96628.22;4193288;28;20268;-72
2022/02/21 04:41:27;;;;;;;14.80;1.33;;;;;;;3.69;76.53;96639.16;4191106;28;20238;-72
2022/02/21 04:43:27;;;;;;;1.30;0.93;;;;;;;3.65;76.50;96630.94;4194838;28;20032;-72
2022/02/21 04:45:28;;;;;;;1.00;0.88;;;;;;;3.63;77.89;96647.69;4186582;28;20056;-72
2022/02/21 04:47:29;;;;;;;1.25;0.98;;;;;;;3.62;76.15;96648.88;4191384;28;20073;-72
2022/02/21 04:49:30;;;;;;;1.45;0.95;;;;;;;3.66;74.83;96651.66;4194059;28;20101;-72
2022/02/21 04:51:30;;;;;;;2.67;1.10;;;;;;;3.67;75.47;96647.75;4192082;28;20036;-72
2022/02/21 04:53:30;;;;;;;1.83;0.90;;;;;;;3.57;76.19;96638.28;4184790;28;20403;-72
2022/02/21 04:55:31;;;;;;;2.42;1.00;;;;;;;3.57;75.55;96619.16;4189777;28;20084;-72
2022/02/21 04:57:31;;;;;;;1.42;0.85;;;;;;;3.51;76.52;96625.34;4188789;28;20060;-72
2022/02/21 04:59:31;;;;;;;2.05;1.00;;;;;;;3.54;76.56;96630.03;4186955;28;20172;-72
2022/02/21 05:01:32;;;;;;;1.10;1.00;;;;;;;3.50;76.88;96668.28;4183306;28;20037;-72
2022/02/21 05:03:32;;;;;;;2.15;1.00;;;;;;;3.56;76.20;96666.00;4184067;28;20038;-71
2022/02/21 05:05:32;;;;;;;2.42;1.27;;;;;;;3.54;74.68;96662.84;4188859;28;20037;-71
2022/02/21 05:07:33;;;;;;;2.83;0.85;;;;;;;3.53;75.26;96650.34;4194839;28;20070;-72
2022/02/21 05:09:33;;;;;;;1.13;1.02;;;;;;;3.52;74.42;96656.97;4194028;28;20040;-72
2022/02/21 05:11:33;;;;;;;1.58;1.00;;;;;;;3.41;75.33;96654.16;4188485;28;20514;-72
2022/02/21 05:13:37;;;;;;;2.85;1.60;;;;;;;3.38;75.92;96665.81;4188504;28;20041;-72
2022/02/21 05:15:37;;;;;;;3.13;1.13;;;;;;;3.32;75.12;96670.06;4192940;28;20041;-72
2022/02/21 05:17:37;;;;;;;3.78;0.90;;;;;;;3.28;74.02;96675.47;4191594;28;20104;-72
2022/02/21 05:19:38;;;;;;;2.22;1.08;;;;;;;3.21;75.42;96674.59;4192990;28;20036;-72
2022/02/21 05:21:38;;;;;;;5.43;1.40;;;;;;;3.23;73.09;96666.84;4179965;28;20131;-72
2022/02/21 05:23:39;;;;;;;3.75;1.30;;;;;;;3.17;73.77;96682.78;4187633;28;20041;-72
2022/02/21 05:25:40;;;;;;;4.20;1.00;;;;;;;3.15;74.10;96678.84;4198131;28;20040;-72
2022/02/21 05:27:41;;;;;;;3.03;1.02;;;;;;;3.04;74.39;96668.56;4201548;28;20044;-72
2022/02/21 05:29:41;;;;;;;5.65;1.30;;;;;;;2.98;73.98;96674.72;4197687;28;20366;-72
2022/02/21 05:31:42;;;;;;;5.05;1.67;;;;;;;2.98;73.06;96681.00;4194271;28;20042;-72
2022/02/21 05:33:42;;;;;;;3.03;1.20;;;;;;;2.91;73.63;96677.41;4202740;28;20058;-72
2022/02/21 05:35:43;;;;;;;4.95;1.63;;;;;;;2.88;72.96;96667.97;4190149;28;20411;-72
2022/02/21 05:37:46;;;;;;;3.92;1.30;;;;;;;2.82;72.80;96644.91;4186981;28;20090;-72
2022/02/21 05:39:47;;;;;;;3.30;1.33;;;;;;;2.93;70.72;96650.47;4188097;28;20094;-72
2022/02/21 05:41:48;;;;;;;5.57;1.17;;;;;;;2.91;71.07;96658.28;4199243;28;20040;-72
2022/02/21 05:43:48;;;;;;;6.45;1.65;;;;;;;2.95;71.01;96670.00;4202033;28;20040;-72
2022/02/21 05:45:48;;;;;;;2.58;1.10;;;;;;;2.91;71.39;96661.00;4202742;28;20148;-72
2022/02/21 05:47:48;;;;;;;4.32;1.30;;;;;;;2.94;70.53;96658.31;4202794;28;20086;-72
2022/02/21 05:49:49;;;;;;;5.80;1.65;;;;;;;2.98;69.71;96670.06;4203411;28;20079;-72
2022/02/21 05:51:49;;;;;;;2.70;1.77;;;;;;;2.95;69.65;96675.47;4202803;28;20117;-72
2022/02/21 05:53:50;;;;;;;2.47;1.40;;;;;;;2.91;70.53;96680.91;4203163;28;20500;-72
2022/02/21 05:55:50;;;;;;;4.65;1.33;;;;;;;2.97;69.77;96709.47;4190087;28;20067;-72
2022/02/21 05:57:57;;;;;;;2.88;1.42;;;;;;;3.02;70.18;96730.22;4095550;28;20250;-71
2022/02/21 05:59:59;;;;;;;7.18;2.28;;;;;;;2.99;70.74;96729.00;4191263;28;20052;-72
2022/02/21 06:01:59;;;;;;;7.10;2.30;;;;;;;3.03;71.50;96735.28;4193916;28;20442;-72
2022/02/21 06:04:00;;;;;;;5.07;1.60;;;;;;;2.99;72.10;96720.03;4201976;28;20468;-72
2022/02/21 06:06:00;;;;;;;6.65;2.05;;;;;;;2.99;72.49;96739.16;4203298;28;20090;-72
2022/02/21 06:08:01;;;;;;;4.55;1.60;;;;;;;2.92;72.62;96741.78;4202671;28;20051;-72
2022/02/21 06:10:01;;;;;;;3.40;1.45;;;;;;;2.81;72.78;96750.63;4193392;28;20380;-72
2022/02/21 06:12:01;;;;;;;6.75;1.30;;;;;;;2.88;72.71;96749.94;4187685;28;20063;-72
2022/02/21 06:14:02;;;;;;;2.85;1.40;;;;;;;2.80;73.48;96750.97;4187899;28;20048;-72
2022/02/21 06:16:03;;;;;;;5.53;1.55;;;;;;;2.82;73.25;96759.63;4187420;28;20116;-72
2022/02/21 06:18:03;;;;;;;4.78;1.55;;;;;;;2.74;73.67;96772.38;4187027;28;20033;-72
2022/02/21 06:20:04;;;;;;;4.88;1.50;;;;;;;2.69;71.97;96786.34;4187679;28;20809;-72
2022/02/21 06:22:04;;;;;;;1.58;1.13;;;;;;;2.71;70.50;96800.41;4187684;28;20166;-72
2022/02/21 06:24:05;;;;;;;2.42;1.20;;;;;;;2.59;71.83;96780.72;4187668;28;21019;-72
2022/02/21 06:26:06;;;;;;;4.22;1.20;;;;;;;2.50;72.82;96792.69;4197295;28;20082;-72
2022/02/21 06:28:06;;;;;;;2.72;1.30;;;;;;;2.49;72.15;96801.25;4187537;28;20387;-72
2022/02/21 06:30:07;;;;;;;2.33;1.35;;;;;;;2.37;73.02;96790.50;4186596;28;20085;-72
2022/02/21 06:32:08;;;;;;;5.90;2.00;;;;;;;2.39;72.72;96807.31;4186399;28;20223;-72
2022/02/21 06:34:08;;;;;;;4.32;1.33;;;;;;;2.34;71.27;96822.06;4187263;28;20037;-72
2022/02/21 06:36:09;;;;;;;2.95;1.30;;;;;;;2.23;71.95;96835.53;4202595;28;20031;-72
2022/02/21 06:38:09;;;;;;;2.58;1.27;;;;;;;2.21;71.49;96834.28;4200732;28;20144;-72
2022/02/21 06:40:11;;;;;;;4.82;1.30;;;;;;;2.23;71.69;96838.25;4197650;28;20076;-72
2022/02/21 06:42:11;;;;;;;4.38;1.20;;;;;;;2.18;70.69;96854.13;4187504;28;20040;-72
2022/02/21 06:44:13;;;;;;;2.80;1.15;;;;;;;2.19;71.47;96837.38;4186923;28;20032;-73
2022/02/21 06:46:14;;;;;;;9.32;4.50;;;;;;;2.16;71.66;96834.59;4200857;28;20067;-72
2022/02/21 06:48:14;;;;;;;3.42;1.95;;;;;;;2.16;71.10;96840.06;4192695;28;20036;-72
2022/02/21 06:50:16;;;;;;;5.38;2.47;;;;;;;2.08;71.90;96838.38;4186960;28;20028;-72
2022/02/21 06:52:17;;;;;;;4.25;2.00;;;;;;;2.05;72.73;96842.59;4185935;28;20032;-72
2022/02/21 06:54:18;;;;;;;6.43;1.80;;;;;;;2.08;72.04;96871.09;4186662;28;20037;-72
2022/02/21 06:56:18;;;;;;;4.70;1.40;;;;;;;2.09;72.69;96848.13;4187238;28;20064;-72
2022/02/21 06:58:19;;;;;;;3.72;1.10;;;;;;;2.02;73.22;96843.31;4193065;28;20028;-72
2022/02/21 07:00:19;;;;;;;2.13;1.00;;;;;;;2.10;72.32;96852.41;4202170;28;20357;-72
2022/02/21 07:02:20;;;;;;;4.93;1.33;;;;;;;2.09;72.65;96862.53;4195707;28;20028;-72
2022/02/21 07:04:20;;;;;;;2.55;1.13;;;;;;;2.08;72.92;96873.81;4202629;28;20055;-72
2022/02/21 07:06:21;;;;;;;2.60;1.00;;;;;;;2.11;71.95;96873.88;4191952;28;20459;-72
2022/02/21 07:08:21;;;;;;;3.05;0.98;;;;;;;2.15;72.23;96868.47;4191834;28;20431;-72
2022/02/21 07:10:22;;;;;;;2.00;0.90;;;;;;;2.21;72.40;96869.75;4189697;28;20094;-72
2022/02/21 07:12:22;;;;;;;1.52;1.20;;;;;;;2.15;73.45;96858.38;4186649;28;20086;-72
2022/02/21 07:14:23;;;;;;;2.53;1.40;;;;;;;2.25;73.88;96860.50;4186453;28;20477;-72
2022/02/21 07:16:24;;;;;;;4.28;1.20;;;;;;;2.28;73.43;96867.16;4186808;28;20047;-71
2022/02/21 07:18:24;;;;;;;3.88;1.45;;;;;;;2.40;71.91;96877.94;4186189;28;20472;-72
2022/02/21 07:20:25;;;;;;;8.80;1.20;;;;;;;2.45;71.98;96882.28;4186552;28;20058;-72
2022/02/21 07:22:26;;;;;;;6.68;1.42;;;;;;;2.51;71.62;96900.72;4190257;28;20435;-71
2022/02/21 07:24:26;;;;;;;10.13;1.95;;;;;;;2.40;71.12;96888.03;4186913;28;20037;-71
2022/02/21 07:26:26;;;;;;;5.13;1.30;;;;;;;2.42;70.98;96893.94;4190621;28;20056;-72
2022/02/21 07:28:27;;;;;;;2.33;1.15;;;;;;;2.40;70.92;96898.94;4200403;28;20426;-72
2022/02/21 07:30:28;;;;;;;4.90;1.33;;;;;;;2.24;71.91;96893.63;4201883;28;20036;-71
2022/02/21 07:32:29;;;;;;;4.78;1.23;;;;;;;2.22;72.31;96917.72;4191833;28;20041;-72
2022/02/21 07:34:29;;;;;;;7.35;1.30;;;;;;;2.15;72.41;96917.59;4186563;28;20483;-72
2022/02/21 07:36:30;;;;;;;2.75;1.30;;;;;;;2.13;72.33;96915.22;4187221;28;20052;-72
2022/02/21 07:38:30;;;;;;;7.35;1.33;;;;;;;2.14;72.19;96935.91;4186239;28;20042;-72
2022/02/21 07:40:31;;;;;;;2.35;1.30;;;;;;;2.08;73.38;96929.19;4189198;28;20411;-72
2022/02/21 07:42:31;;;;;;;6.82;1.20;;;;;;;2.04;73.64;96939.22;4189915;28;20056;-72
2022/02/21 07:44:32;;;;;;;2.33;1.33;;;;;;;1.99;74.38;96942.25;4186934;28;20182;-72
2022/02/21 07:46:32;;;;;;;3.92;1.02;;;;;;;2.01;74.29;96944.63;4185724;28;20197;-72
2022/02/21 07:48:32;;;;;;;4.45;1.27;;;;;;;2.03;73.85;96947.75;4185962;28;20049;-72
2022/02/21 07:50:35;;;;;;;2.35;1.27;;;;;;;2.02;74.32;96946.97;4186706;28;20601;-72
2022/02/21 07:52:35;;;;;;;2.53;1.15;;;;;;;2.06;75.29;96952.50;4186520;28;20044;-72
2022/02/21 07:54:36;;;;;;;1.88;1.10;;;;;;;2.09;74.14;96963.50;4186617;28;20417;-72
2022/02/21 07:56:37;;;;;;;2.38;1.13;;;;;;;2.21;74.52;96959.81;4185184;28;20793;-72
2022/02/21 07:58:37;;;;;;;3.22;1.63;;;;;;;2.24;75.03;96959.91;4186740;28;20386;-72
2022/02/21 08:00:38;;;;;;;3.42;1.30;;;;;;;2.25;74.92;96961.47;4186243;28;20373;-71
2022/02/21 08:02:39;;;;;;;2.90;1.23;;;;;;;2.30;74.23;96965.06;4198614;28;20528;-72
2022/02/21 08:04:39;;;;;;;5.57;1.60;;;;;;;2.39;73.47;96954.69;4192463;28;20469;-72
2022/02/21 08:06:39;;;;;;;3.55;1.20;;;;;;;2.48;73.66;96971.63;4184908;28;20388;-72
2022/02/21 08:08:40;;;;;;;1.92;1.27;;;;;;;2.52;73.04;96976.03;4186376;28;20040;-72
2022/02/21 08:10:40;;;;;;;1.02;0.82;;;;;;;2.57;72.87;96966.75;4186978;28;20370;-72
2022/02/21 08:12:41;;;;;;;2.10;1.02;;;;;;;2.64;72.40;96955.94;4185875;28;20530;-72
2022/02/21 08:14:41;;;;;;;1.90;0.90;;;;;;;2.71;71.09;96961.53;4190582;28;20360;-72
2022/02/21 08:16:41;;;;;;;1.52;1.10;;;;;;;2.73;71.51;96970.19;4200006;28;20364;-72
2022/02/21 08:18:42;;;;;;;1.80;1.00;;;;;;;2.74;71.28;96974.47;4198627;28;20074;-72
2022/02/21 08:20:42;;;;;;;1.40;0.90;;;;;;;2.78;71.36;96980.00;4186219;28;20060;-72
2022/02/21 08:22:43;;;;;;;2.17;1.20;;;;;;;2.84;71.98;96980.50;4193942;28;20051;-72
2022/02/21 08:24:43;;;;;;;3.72;1.33;;;;;;;2.85;71.86;96993.78;4197087;28;20431;-72
2022/02/21 08:26:44;;;;;;;2.20;1.27;;;;;;;2.79;72.27;96990.56;4184700;28;20036;-72
2022/02/21 08:28:44;;;;;;;1.73;0.98;;;;;;;2.88;71.49;96986.78;4186243;28;20086;-72
2022/02/21 08:30:44;;;;;;;3.38;1.17;;;;;;;2.79;72.40;96984.28;4186294;28;20052;-72
2022/02/21 08:32:45;;;;;;;1.55;1.10;;;;;;;2.75;72.70;96988.91;4186126;28;20290;-72
2022/02/21 08:34:46;;;;;;;3.13;1.10;;;;;;;2.74;71.71;96987.34;4186046;28;20758;-72
2022/02/21 08:36:47;;;;;;;1.65;0.90;;;;;;;2.64;72.45;96990.66;4185522;28;20469;-72
2022/02/21 08:38:47;;;;;;;2.83;1.00;;;;;;;2.65;73.03;97001.22;4186450;28;20043;-72
2022/02/21 08:40:48;;;;;;;5.28;1.23;;;;;;;2.66;73.51;97002.03;4197049;28;20058;-72
2022/02/21 08:42:49;;;;;;;2.20;1.08;;;;;;;2.78;72.40;97007.31;4201063;28;20080;-72
2022/02/21 08:44:49;;;;;;;1.38;0.90;;;;;;;2.83;73.20;97011.69;4201070;28;20553;-72
2022/02/21 08:46:49;;;;;;;3.13;1.65;;;;;;;2.93;71.38;97002.88;4191840;28;20051;-72
2022/02/21 08:48:50;;;;;;;3.55;1.30;;;;;;;2.93;71.61;97006.41;4186122;28;20083;-72
2022/02/21 08:50:51;;;;;;;1.25;0.90;;;;;;;2.93;72.31;97006.41;4196004;28;20044;-72
2022/02/21 08:52:51;;;;;;;5.20;1.55;;;;;;;2.91;72.83;96994.28;4201262;28;20222;-72
2022/02/21 08:54:51;;;;;;;1.52;0.93;;;;;;;3.03;72.30;96999.56;4187744;28;20516;-72
2022/02/21 08:56:52;;;;;;;1.23;1.05;;;;;;;3.00;71.95;96981.94;4185102;28;20049;-72
2022/02/21 08:58:52;;;;;;;1.67;0.98;;;;;;;3.04;71.69;96988.25;4186265;28;20200;-72
2022/02/21 09:00:53;;;;;;;3.95;2.25;;;;;;;3.08;71.54;97012.91;4185900;28;20457;-72
2022/02/21 09:02:53;;;;;;;4.40;1.50;;;;;;;3.08;71.65;97016.44;4185804;28;20076;-72
2022/02/21 09:04:53;;;;;;;11.07;3.47;;;;;;;3.08;71.94;97035.56;4186068;28;20441;-72
2022/02/21 09:06:54;;;;;;;7.35;2.95;;;;;;;3.12;72.50;97023.91;4184790;28;20389;-72
2022/02/21 09:08:54;;;;;;;7.45;2.30;;;;;;;3.26;72.41;97016.72;4185626;28;20147;-72
2022/02/21 09:10:54;;;;;;;5.47;1.90;;;;;;;3.32;71.84;97020.75;4186752;28;20041;-72
2022/02/21 09:12:55;;;;;;;8.80;2.03;;;;;;;3.41;70.55;97009.56;4185781;28;20088;-72
2022/02/21 09:15:00;;;;;;;4.30;1.70;;;;;;;3.50;71.62;97015.56;4185845;28;20049;-72
2022/02/21 09:17:00;;;;;;;6.35;1.70;;;;;;;3.48;69.70;97012.41;4185039;28;20055;-72
2022/02/21 09:19:00;;;;;;;5.95;2.20;;;;;;;3.51;69.56;97019.09;4202139;28;20218;-72
2022/02/21 09:21:01;;;;;;;4.97;2.30;;;;;;;3.51;70.79;97017.13;4203960;28;20072;-72
2022/02/21 09:23:01;;;;;;;9.55;2.88;;;;;;;3.57;70.59;97010.19;4203786;28;20052;-72
2022/02/21 09:25:02;;;;;;;7.20;3.35;;;;;;;3.64;69.79;97013.06;4203813;28;20048;-72
2022/02/21 09:27:02;;;;;;;10.13;2.88;;;;;;;3.73;68.96;97022.94;4203170;28;20399;-72
2022/02/21 09:29:02;;;;;;;7.25;2.05;;;;;;;3.80;69.14;97015.59;4189276;28;20715;-72
2022/02/21 09:31:03;;;;;;;6.68;1.80;;;;;;;3.78;68.88;97017.91;4203739;28;20032;-72
2022/02/21 09:33:03;;;;;;;7.88;2.17;;;;;;;3.70;68.59;97005.28;4197193;28;20074;-72
2022/02/21 09:35:04;;;;;;;9.55;1.70;;;;;;;3.61;68.46;97010.25;4188314;28;20044;-72